Time;durP1;ratioP1;P1;durP2;ratioP2;P2;SDS_P1;SDS_P2;PMS_P1;PMS_P2;Temp;Humidity;BMP_temperature;BMP_pressure;BME280_temperature;BME280_humidity;BME280_pressure;Samples;Min_cycle;Max_cycle;Signal;HPM_P1;HPM_P2
2022/03/11 19:45:20;;;;;;;2.50;2.20;;;21.80;55.70;;;;;;5113972;27;20910;-44
2022/03/11 19:47:46;;;;;;;;;;;21.80;56.80;;;;;;5118136;28;20043;-47
2022/03/11 19:50:13;;;;;;;6.15;2.30;;;21.80;56.10;;;;;;5124869;27;20308;-44
2022/03/11 19:52:40;;;;;;;3.75;2.42;;;21.90;56.00;;;;;;5124454;28;20073;-39
2022/03/11 19:55:07;;;;;;;6.73;2.60;;;21.90;56.00;;;;;;5114226;28;20035;-41
2022/03/11 19:57:34;;;;;;;5.10;2.60;;;21.90;56.10;;;;;;5125979;28;20035;-42
2022/03/11 20:00:00;;;;;;;3.88;2.25;;;21.90;55.80;;;;;;5122258;27;20040;-42
2022/03/11 20:02:30;;;;;;;3.38;2.70;;;21.90;55.50;;;;;;5125669;28;20035;-42
2022/03/11 20:04:56;;;;;;;3.65;2.53;;;22.00;55.80;;;;;;5126033;27;20048;-41
2022/03/11 20:07:23;;;;;;;4.90;2.05;;;22.00;55.90;;;;;;5112120;28;20036;-42
2022/03/11 20:09:49;;;;;;;4.43;2.50;;;22.00;56.00;;;;;;5105117;28;20131;-42
2022/03/11 20:12:19;;;;;;;3.70;2.43;;;22.00;56.30;;;;;;5112512;28;20012;-42
2022/03/11 20:14:46;;;;;;;3.78;2.47;;;22.00;56.50;;;;;;5119920;28;20480;-41
2022/03/11 20:17:13;;;;;;;;;;;22.00;56.50;;;;;;5115611;28;20032;-42
2022/03/11 20:19:39;;;;;;;3.75;2.92;;;22.00;56.70;;;;;;5119123;28;19916;-43
2022/03/11 20:22:05;;;;;;;2.60;1.73;;;22.00;56.60;;;;;;5120015;28;20031;-41
2022/03/11 20:24:32;;;;;;;3.53;3.00;;;22.10;56.80;;;;;;5109796;28;20468;-42
2022/03/11 20:26:59;;;;;;;3.42;2.47;;;22.00;55.70;;;;;;5119554;28;20085;-43
2022/03/11 20:29:25;;;;;;;3.85;2.58;;;22.10;55.50;;;;;;5119612;28;20084;-43
2022/03/11 20:31:53;;;;;;;3.57;2.87;;;22.10;55.70;;;;;;5119608;28;20039;-43
2022/03/11 20:34:22;;;;;;;3.75;2.65;;;22.10;56.10;;;;;;5119367;28;20050;-43
2022/03/11 20:36:50;;;;;;;5.10;2.75;;;22.10;56.50;;;;;;5117376;28;20051;-44
2022/03/11 20:39:17;;;;;;;3.90;2.75;;;22.10;56.60;;;;;;5106352;28;20054;-44
2022/03/11 20:41:45;;;;;;;5.00;2.73;;;22.10;56.50;;;;;;5118789;28;20028;-42
2022/03/11 20:44:11;;;;;;;4.32;2.83;;;22.20;56.60;;;;;;5122739;28;20127;-42
2022/03/11 20:46:39;;;;;;;4.57;3.13;;;22.20;56.60;;;;;;5129084;27;20072;-43
2022/03/11 20:49:05;;;;;;;4.60;2.85;;;22.20;56.60;;;;;;5111608;28;20129;-44
2022/03/11 20:51:32;;;;;;;4.43;3.00;;;22.20;56.60;;;;;;5112190;28;20101;-43
2022/03/11 20:53:59;;;;;;;3.33;2.95;;;22.20;56.50;;;;;;5112756;28;20032;-43
2022/03/11 20:56:25;;;;;;;4.07;3.30;;;22.20;55.40;;;;;;5094168;28;20080;-47
2022/03/11 20:58:54;;;;;;;4.45;3.28;;;22.20;55.60;;;;;;5102323;28;20034;-40
2022/03/11 21:01:22;;;;;;;4.03;2.80;;;22.30;56.00;;;;;;5113816;28;20144;-41
2022/03/11 21:03:53;;;;;;;6.05;2.92;;;22.30;56.20;;;;;;5120256;28;20065;-41
2022/03/11 21:06:20;;;;;;;5.28;3.10;;;22.40;56.30;;;;;;5107569;28;20028;-42
2022/03/11 21:08:47;;;;;;;7.53;2.70;;;22.50;56.40;;;;;;5105748;28;21745;-42
2022/03/11 21:11:16;;;;;;;6.90;3.30;;;22.50;56.40;;;;;;5112334;28;20031;-41
2022/03/11 21:13:46;;;;;;;6.03;2.72;;;22.50;56.50;;;;;;5113207;28;20032;-42
2022/03/11 21:16:16;;;;;;;4.65;2.45;;;22.60;56.60;;;;;;5111003;28;20460;-42
2022/03/11 21:18:43;;;;;;;3.63;2.80;;;22.70;56.60;;;;;;5118194;28;20031;-41
2022/03/11 21:21:13;;;;;;;2.97;2.30;;;22.70;56.50;;;;;;5109276;28;20040;-41
2022/03/11 21:23:40;;;;;;;4.13;2.88;;;22.70;56.60;;;;;;5110258;28;20123;-41
2022/03/11 21:26:07;;;;;;;3.60;2.38;;;22.80;56.50;;;;;;5110514;28;20071;-42
2022/03/11 21:28:33;;;;;;;3.78;2.72;;;23.00;56.10;;;;;;5110168;28;20031;-40
2022/03/11 21:30:59;;;;;;;4.40;3.08;;;23.10;55.90;;;;;;5104814;28;20058;-41
2022/03/11 21:33:25;;;;;;;4.40;2.58;;;23.00;55.80;;;;;;5104926;28;20053;-42
2022/03/11 21:35:51;;;;;;;4.22;2.42;;;23.10;55.90;;;;;;5102350;28;20024;-41
2022/03/11 21:38:17;;;;;;;3.65;2.97;;;23.20;56.10;;;;;;5101811;28;20028;-41
2022/03/11 21:40:44;;;;;;;7.57;2.88;;;23.20;56.00;;;;;;5102870;28;20681;-43
2022/03/11 21:43:10;;;;;;;7.05;2.65;;;23.20;56.00;;;;;;5107802;28;20028;-42
2022/03/11 21:45:36;;;;;;;3.90;2.73;;;23.30;57.00;;;;;;5108973;28;20034;-42
2022/03/11 21:48:05;;;;;;;8.48;3.03;;;23.40;57.80;;;;;;5108110;28;20342;-42
2022/03/11 21:50:32;;;;;;;5.22;2.53;;;23.50;58.10;;;;;;5112132;28;20024;-43
2022/03/11 21:52:58;;;;;;;7.25;2.72;;;23.50;58.80;;;;;;5110808;28;20484;-42
2022/03/11 21:55:24;;;;;;;5.95;3.08;;;23.50;59.40;;;;;;5108169;28;20036;-54
2022/03/11 21:57:51;;;;;;;7.47;2.88;;;23.50;60.00;;;;;;5106851;28;20024;-39
2022/03/11 22:00:17;;;;;;;4.70;3.03;;;23.50;59.80;;;;;;5110469;28;20032;-36
2022/03/11 22:02:44;;;;;;;5.63;2.90;;;23.50;58.40;;;;;;5110640;28;20016;-36
2022/03/11 22:05:10;;;;;;;6.18;3.17;;;23.50;57.40;;;;;;5107597;28;20035;-36
2022/03/11 22:07:38;;;;;;;7.78;3.20;;;23.50;57.30;;;;;;5114519;28;20066;-36
2022/03/11 22:10:06;;;;;;;4.88;3.13;;;23.50;57.10;;;;;;5093632;28;20050;-36
2022/03/11 22:12:32;;;;;;;4.13;3.05;;;23.50;56.90;;;;;;5107161;28;20047;-36
2022/03/11 22:15:00;;;;;;;3.67;2.92;;;23.50;56.60;;;;;;5109234;28;20020;-36
2022/03/11 22:17:27;;;;;;;;;;;23.50;56.40;;;;;;5106818;28;20032;-35
2022/03/11 22:19:54;;;;;;;3.80;2.92;;;23.50;56.10;;;;;;5110793;28;19904;-36
2022/03/11 22:22:20;;;;;;;3.47;2.92;;;23.50;56.60;;;;;;5111346;28;20110;-36
2022/03/11 22:24:47;;;;;;;4.68;3.17;;;23.50;57.20;;;;;;5105504;28;20059;-36
2022/03/11 22:27:13;;;;;;;4.72;3.10;;;23.50;57.50;;;;;;5114271;28;20021;-36
2022/03/11 22:29:39;;;;;;;6.82;3.47;;;23.50;57.30;;;;;;5110899;28;20042;-36
2022/03/11 22:32:05;;;;;;;6.72;3.60;;;23.50;58.20;;;;;;5115641;28;20051;-36
2022/03/11 22:34:32;;;;;;;6.07;3.55;;;23.50;57.70;;;;;;5083258;28;20067;-36
2022/03/11 22:36:58;;;;;;;5.07;3.20;;;23.50;57.00;;;;;;5099918;28;20032;-36
2022/03/11 22:39:24;;;;;;;5.50;3.90;;;23.50;56.40;;;;;;5095670;28;20024;-36
2022/03/11 22:41:50;;;;;;;4.47;3.10;;;23.50;56.10;;;;;;5094328;28;20039;-36
2022/03/11 22:44:19;;;;;;;6.27;3.43;;;23.50;56.10;;;;;;5103827;28;20078;-36
2022/03/11 22:46:46;;;;;;;8.65;3.38;;;23.50;56.10;;;;;;5098158;28;20032;-36
2022/03/11 22:49:17;;;;;;;6.20;2.97;;;23.50;55.80;;;;;;5102789;28;20027;-39
2022/03/11 22:51:45;;;;;;;4.45;3.33;;;23.50;55.20;;;;;;5102282;28;20028;-38
2022/03/11 22:54:13;;;;;;;5.97;3.72;;;23.50;54.40;;;;;;5103536;28;20043;-40
2022/03/11 22:56:41;;;;;;;7.45;3.78;;;23.40;53.90;;;;;;5107071;28;20401;-40
2022/03/11 22:59:11;;;;;;;6.55;3.72;;;23.40;53.70;;;;;;5103577;28;20040;-39
2022/03/11 23:01:45;;;;;;;6.57;3.70;;;23.40;53.80;;;;;;5101887;28;20109;-40
2022/03/11 23:04:12;;;;;;;7.68;3.80;;;23.40;53.60;;;;;;5102569;28;20048;-40
2022/03/11 23:09:29;;;;;;;5.03;4.03;;;23.30;53.50;;;;;;5097539;28;20062;-39
2022/03/11 23:12:03;;;;;;;5.00;3.25;;;23.30;53.50;;;;;;5103616;28;20027;-39
2022/03/11 23:14:30;;;;;;;5.53;3.15;;;23.30;53.40;;;;;;5102618;28;20122;-43
2022/03/11 23:16:57;;;;;;;6.90;3.45;;;23.20;53.30;;;;;;5105677;28;20024;-40
2022/03/11 23:19:24;;;;;;;6.13;4.00;;;23.20;53.50;;;;;;5103044;28;20032;-38
2022/03/11 23:21:52;;;;;;;5.80;3.75;;;23.20;53.50;;;;;;5098019;28;20034;-35
2022/03/11 23:24:19;;;;;;;8.07;3.47;;;23.20;53.60;;;;;;5104993;28;20099;-35
2022/03/11 23:26:45;;;;;;;6.68;3.80;;;23.20;53.70;;;;;;5104079;28;20521;-40
2022/03/11 23:29:12;;;;;;;8.07;3.80;;;23.20;53.90;;;;;;5101012;28;20079;-36
2022/03/11 23:31:38;;;;;;;12.20;3.83;;;23.20;54.20;;;;;;5105156;28;20020;-36
2022/03/11 23:34:05;;;;;;;12.13;4.47;;;23.20;53.90;;;;;;5092593;28;20017;-36
2022/03/11 23:36:37;;;;;;;7.95;4.15;;;23.10;54.40;;;;;;5111590;28;20035;-36
2022/03/11 23:39:05;;;;;;;9.63;4.38;;;23.10;54.00;;;;;;5088558;28;20025;-36
2022/03/11 23:41:31;;;;;;;9.52;4.43;;;23.10;53.70;;;;;;5106735;28;20038;-36
2022/03/11 23:43:59;;;;;;;7.82;4.53;;;23.10;53.60;;;;;;5090950;28;20056;-36
2022/03/11 23:46:26;;;;;;;7.53;4.53;;;23.10;53.50;;;;;;5118212;28;20024;-37
2022/03/11 23:48:52;;;;;;;5.93;3.83;;;23.00;53.40;;;;;;5112743;28;20027;-36
2022/03/11 23:51:18;;;;;;;8.48;4.00;;;23.00;53.40;;;;;;5102525;28;20092;-37
2022/03/11 23:53:44;;;;;;;8.70;4.05;;;23.00;53.50;;;;;;5109224;28;20036;-36
2022/03/11 23:56:10;;;;;;;4.38;3.53;;;23.00;53.70;;;;;;5118420;28;20020;-36
2022/03/11 23:58:36;;;;;;;6.47;3.55;;;23.00;53.80;;;;;;5109876;28;20028;-36
